Time;durP1;ratioP1;P1;durP2;ratioP2;P2;SDS_P1;SDS_P2;PMS_P1;PMS_P2;Temp;Humidity;BMP_temperature;BMP_pressure;BME280_temperature;BME280_humidity;BME280_pressure;Samples;Min_cycle;Max_cycle;Signal;HPM_P1;HPM_P2
2023/01/23 00:00:53;;;;;;;78.15;32.92;;;;;;;;;;6286999;22;20030;-95
2023/01/23 00:03:19;;;;;;;80.38;33.03;;;;;;;;;;6286614;22;20019;-94
2023/01/23 00:05:45;;;;;;;80.78;34.25;;;;;;;;;;6314106;22;20004;-93
2023/01/23 00:08:11;;;;;;;78.88;35.05;;;;;;;;;;6287170;22;20007;-94
2023/01/23 00:10:38;;;;;;;80.25;35.13;;;;;;;;;;6313646;22;19999;-94
2023/01/23 00:13:04;;;;;;;80.85;34.78;;;;;;;;;;6314281;22;19995;-94
2023/01/23 00:15:32;;;;;;;82.82;36.22;;;;;;;;;;6286833;22;20006;-95
2023/01/23 00:17:58;;;;;;;85.68;36.15;;;;;;;;;;6314107;22;20017;-94
2023/01/23 00:20:24;;;;;;;77.55;34.05;;;;;;;;;;6313665;22;20267;-95
2023/01/23 00:22:50;;;;;;;82.97;36.95;;;;;;;;;;6313885;22;20007;-95
2023/01/23 00:25:16;;;;;;;81.40;35.33;;;;;;;;;;6286743;22;20015;-93
2023/01/23 00:28:01;;;;;;;81.80;36.50;;;;;;;;;;6286831;22;20003;-96
2023/01/23 00:30:27;;;;;;;82.15;36.15;;;;;;;;;;6314019;22;20431;-94
2023/01/23 00:32:53;;;;;;;77.88;34.08;;;;;;;;;;6313859;22;20052;-96
2023/01/23 00:35:20;;;;;;;78.78;35.28;;;;;;;;;;6314238;22;20049;-95
2023/01/23 00:37:46;;;;;;;89.47;40.03;;;;;;;;;;6286792;22;20132;-95
2023/01/23 00:40:12;;;;;;;79.72;35.72;;;;;;;;;;6286556;22;20094;-96
2023/01/23 00:42:38;;;;;;;74.43;33.67;;;;;;;;;;6286573;22;20006;-96
2023/01/23 00:45:05;;;;;;;84.07;36.33;;;;;;;;;;6287080;22;20086;-94
2023/01/23 00:47:31;;;;;;;64.72;31.98;;;;;;;;;;6313970;22;20255;-94
2023/01/23 00:49:58;;;;;;;72.28;32.63;;;;;;;;;;6313501;22;20007;-95
2023/01/23 00:52:24;;;;;;;74.50;33.35;;;;;;;;;;6313411;22;20262;-93
2023/01/23 00:54:51;;;;;;;72.60;32.63;;;;;;;;;;6286526;22;20005;-95
2023/01/23 00:57:17;;;;;;;72.20;30.90;;;;;;;;;;6286594;22;20010;-94
2023/01/23 00:59:43;;;;;;;67.38;30.55;;;;;;;;;;6313687;22;20323;-94
2023/01/23 01:02:09;;;;;;;66.47;29.65;;;;;;;;;;6313493;22;20015;-93
2023/01/23 01:04:35;;;;;;;60.47;29.85;;;;;;;;;;6286803;22;20106;-94
2023/01/23 01:07:01;;;;;;;62.53;29.77;;;;;;;;;;6286271;22;20025;-95
2023/01/23 01:09:27;;;;;;;63.40;28.35;;;;;;;;;;6313295;22;20010;-94
2023/01/23 01:14:57;;;;;;;56.60;28.30;;;;;;;;;;6313534;22;20002;-94
2023/01/23 01:17:23;;;;;;;62.55;29.27;;;;;;;;;;6313349;22;19996;-96
2023/01/23 01:19:49;;;;;;;58.30;28.13;;;;;;;;;;6285996;22;20027;-92
2023/01/23 01:22:15;;;;;;;64.00;30.17;;;;;;;;;;6286883;22;20007;-94
2023/01/23 01:24:42;;;;;;;59.85;29.00;;;;;;;;;;6313100;22;20069;-92
2023/01/23 01:27:08;;;;;;;55.22;27.60;;;;;;;;;;6313357;22;20380;-91
2023/01/23 01:29:34;;;;;;;56.65;28.25;;;;;;;;;;6286201;22;20266;-90
2023/01/23 01:32:00;;;;;;;51.75;27.55;;;;;;;;;;6313691;22;20075;-91
2023/01/23 01:34:26;;;;;;;51.95;26.85;;;;;;;;;;6286107;22;20010;-90
2023/01/23 01:36:52;;;;;;;49.92;26.83;;;;;;;;;;6286183;22;20007;-90
2023/01/23 01:39:18;;;;;;;49.03;26.65;;;;;;;;;;6313352;22;20002;-90
2023/01/23 01:41:45;;;;;;;47.20;25.48;;;;;;;;;;6286273;22;20006;-90
2023/01/23 01:44:21;;;;;;;51.63;25.80;;;;;;;;;;6313238;22;20048;-90
2023/01/23 01:46:48;;;;;;;47.28;25.83;;;;;;;;;;6313193;22;20285;-90
2023/01/23 01:49:25;;;;;;;52.25;28.20;;;;;;;;;;6285766;22;20012;-90
2023/01/23 01:52:05;;;;;;;50.28;26.17;;;;;;;;;;6286143;22;20015;-90
2023/01/23 01:54:31;;;;;;;51.60;27.38;;;;;;;;;;6313151;22;20037;-90
2023/01/23 01:57:03;;;;;;;49.42;26.60;;;;;;;;;;6286002;22;20014;-90
2023/01/23 01:59:30;;;;;;;44.95;24.98;;;;;;;;;;6285829;22;20003;-90
2023/01/23 02:02:03;;;;;;;46.35;25.10;;;;;;;;;;6312620;22;20011;-91
2023/01/23 02:04:30;;;;;;;41.15;23.83;;;;;;;;;;6312527;22;20035;-92
2023/01/23 02:06:57;;;;;;;41.42;24.50;;;;;;;;;;6285954;22;20007;-92
2023/01/23 02:09:25;;;;;;;39.17;23.02;;;;;;;;;;6286518;22;20010;-92
2023/01/23 02:11:51;;;;;;;41.20;22.77;;;;;;;;;;6316579;22;20003;-92
2023/01/23 02:14:17;;;;;;;36.50;21.05;;;;;;;;;;6289097;22;20050;-91
2023/01/23 02:16:45;;;;;;;37.90;22.65;;;;;;;;;;6288869;22;20400;-92
2023/01/23 02:19:21;;;;;;;37.28;22.48;;;;;;;;;;6316569;22;20004;-92
2023/01/23 02:21:50;;;;;;;36.20;21.85;;;;;;;;;;6289091;22;20011;-91
2023/01/23 02:24:25;;;;;;;34.88;21.92;;;;;;;;;;6316676;22;20180;-92
2023/01/23 02:30:08;;;;;;;35.05;22.30;;;;;;;;;;6316396;22;20001;-92
2023/01/23 02:32:35;;;;;;;35.47;22.67;;;;;;;;;;6316194;22;20393;-92
2023/01/23 02:35:05;;;;;;;37.17;22.70;;;;;;;;;;6289391;22;19999;-92
2023/01/23 02:37:33;;;;;;;38.05;23.30;;;;;;;;;;6315546;22;20038;-92
2023/01/23 02:40:01;;;;;;;38.40;23.83;;;;;;;;;;6316427;22;19999;-92
2023/01/23 02:42:28;;;;;;;37.95;24.58;;;;;;;;;;6316267;22;19999;-92
2023/01/23 02:44:55;;;;;;;41.22;24.25;;;;;;;;;;6316652;22;20034;-93
2023/01/23 02:47:21;;;;;;;39.67;24.83;;;;;;;;;;6316635;22;20053;-93
2023/01/23 02:49:48;;;;;;;37.42;24.08;;;;;;;;;;6315947;22;20014;-92
2023/01/23 02:52:14;;;;;;;38.22;24.45;;;;;;;;;;6289065;22;20029;-92
2023/01/23 02:54:40;;;;;;;39.53;23.55;;;;;;;;;;6316399;22;20006;-91
2023/01/23 03:00:42;;;;;;;35.65;23.50;;;;;;;;;;6316387;22;20014;-92
2023/01/23 03:03:08;;;;;;;36.10;23.05;;;;;;;;;;6289137;22;20092;-93
2023/01/23 03:05:35;;;;;;;33.80;22.23;;;;;;;;;;6316409;22;20078;-93
2023/01/23 03:08:01;;;;;;;35.15;23.05;;;;;;;;;;6315801;22;20029;-91
2023/01/23 03:10:29;;;;;;;35.53;22.80;;;;;;;;;;6316069;22;20010;-92
2023/01/23 03:15:59;;;;;;;36.53;23.17;;;;;;;;;;6315871;22;20385;-91
2023/01/23 03:18:26;;;;;;;33.88;23.17;;;;;;;;;;6288664;22;20022;-91
2023/01/23 03:20:52;;;;;;;32.22;21.38;;;;;;;;;;6315286;22;20027;-91
2023/01/23 03:23:18;;;;;;;33.88;22.80;;;;;;;;;;6313593;22;19995;-90
2023/01/23 03:25:47;;;;;;;35.30;23.10;;;;;;;;;;6314901;22;19995;-90
2023/01/23 03:30:58;;;;;;;30.77;21.40;;;;;;;;;;6314141;22;20102;-90
2023/01/23 03:33:24;;;;;;;36.65;23.42;;;;;;;;;;6287032;22;20086;-92
2023/01/23 03:35:50;;;;;;;33.03;23.00;;;;;;;;;;6314384;22;20003;-91
2023/01/23 03:38:18;;;;;;;32.60;22.02;;;;;;;;;;6314467;22;20003;-92
2023/01/23 03:46:33;;;;;;;30.20;21.40;;;;;;;;;;6314205;22;20018;-91
2023/01/23 03:48:59;;;;;;;31.92;21.73;;;;;;;;;;6314304;22;20003;-93
2023/01/23 03:51:25;;;;;;;31.35;22.23;;;;;;;;;;6314165;22;20007;-91
2023/01/23 03:53:51;;;;;;;32.35;21.42;;;;;;;;;;6314478;22;20000;-91
2023/01/23 03:56:17;;;;;;;32.85;22.27;;;;;;;;;;6287790;22;20003;-92
2023/01/23 04:01:47;;;;;;;34.80;23.30;;;;;;;;;;6313941;22;20018;-93
2023/01/23 04:04:13;;;;;;;34.15;22.65;;;;;;;;;;6313733;22;20041;-92
2023/01/23 04:06:39;;;;;;;32.22;22.75;;;;;;;;;;6286871;22;20003;-91
2023/01/23 04:09:05;;;;;;;32.45;22.45;;;;;;;;;;6313856;22;20006;-91
2023/01/23 04:11:47;;;;;;;33.08;22.27;;;;;;;;;;6314127;22;20000;-91
2023/01/23 04:14:13;;;;;;;31.63;21.95;;;;;;;;;;6286807;22;20085;-90
2023/01/23 04:16:39;;;;;;;30.55;21.20;;;;;;;;;;6313688;22;19995;-91
2023/01/23 04:19:05;;;;;;;31.17;21.80;;;;;;;;;;6313921;22;20000;-91
2023/01/23 04:21:31;;;;;;;30.42;20.52;;;;;;;;;;6314131;22;20358;-91
2023/01/23 04:23:57;;;;;;;31.38;20.75;;;;;;;;;;6314026;22;20007;-91
2023/01/23 04:26:23;;;;;;;29.50;20.33;;;;;;;;;;6313853;22;20028;-92
2023/01/23 04:31:52;;;;;;;33.47;20.63;;;;;;;;;;6313741;22;20016;-92
2023/01/23 04:34:18;;;;;;;45.05;23.42;;;;;;;;;;6286374;22;20003;-91
2023/01/23 04:36:44;;;;;;;33.38;20.52;;;;;;;;;;6314038;22;20037;-92
2023/01/23 04:39:10;;;;;;;32.40;21.40;;;;;;;;;;6313886;22;20365;-86
2023/01/23 04:41:37;;;;;;;51.72;32.67;;;;;;;;;;6314169;22;20011;-92
2023/01/23 04:44:18;;;;;;;52.40;31.67;;;;;;;;;;6314070;22;20029;-90
2023/01/23 04:46:45;;;;;;;46.88;29.48;;;;;;;;;;6286459;22;20010;-83
2023/01/23 04:49:11;;;;;;;38.72;24.63;;;;;;;;;;6313773;22;20017;-91
2023/01/23 04:51:37;;;;;;;37.33;23.67;;;;;;;;;;6313486;22;20007;-92
2023/01/23 04:54:03;;;;;;;34.70;21.85;;;;;;;;;;6286057;22;20003;-92
2023/01/23 04:56:29;;;;;;;37.25;20.42;;;;;;;;;;6313893;22;19999;-92
2023/01/23 04:58:55;;;;;;;47.88;26.75;;;;;;;;;;6313670;22;19995;-91
2023/01/23 05:01:22;;;;;;;35.78;23.42;;;;;;;;;;6313670;22;20003;-91
2023/01/23 05:03:52;;;;;;;29.45;19.35;;;;;;;;;;6286246;22;20019;-91
2023/01/23 05:06:18;;;;;;;28.83;18.23;;;;;;;;;;6286620;22;20010;-91
2023/01/23 05:08:44;;;;;;;29.73;19.17;;;;;;;;;;6286407;22;20085;-90
2023/01/23 05:11:11;;;;;;;29.27;18.92;;;;;;;;;;6313494;22;20231;-92
2023/01/23 05:16:40;;;;;;;28.15;18.58;;;;;;;;;;6313509;22;20041;-92
2023/01/23 05:19:06;;;;;;;35.28;20.98;;;;;;;;;;6313337;22;20087;-91
2023/01/23 05:21:32;;;;;;;30.50;18.95;;;;;;;;;;6286092;22;19999;-91
2023/01/23 05:23:59;;;;;;;27.52;18.60;;;;;;;;;;6313171;22;20400;-91
2023/01/23 05:26:25;;;;;;;34.35;19.42;;;;;;;;;;6286255;22;20027;-91
2023/01/23 05:31:54;;;;;;;45.25;25.45;;;;;;;;;;6313127;22;20056;-91
2023/01/23 05:34:20;;;;;;;46.92;30.27;;;;;;;;;;6313076;22;20082;-91
2023/01/23 05:36:46;;;;;;;38.58;27.10;;;;;;;;;;6313475;22;20003;-92
2023/01/23 05:39:12;;;;;;;29.33;19.48;;;;;;;;;;6313448;22;20370;-92
2023/01/23 05:41:38;;;;;;;25.48;17.05;;;;;;;;;;6313561;22;19999;-91
2023/01/23 05:44:04;;;;;;;24.42;16.50;;;;;;;;;;6286773;22;20007;-91
2023/01/23 05:46:30;;;;;;;25.65;16.52;;;;;;;;;;6312933;22;20074;-91
2023/01/23 05:48:57;;;;;;;27.27;18.15;;;;;;;;;;6311983;22;20010;-91
2023/01/23 05:51:30;;;;;;;22.88;15.70;;;;;;;;;;6313270;22;20011;-91
2023/01/23 05:53:56;;;;;;;29.20;19.80;;;;;;;;;;6285677;22;20266;-91
2023/01/23 05:56:24;;;;;;;34.42;23.42;;;;;;;;;;6286002;22;19995;-91
2023/01/23 05:58:51;;;;;;;33.95;22.10;;;;;;;;;;6286212;22;19999;-92
2023/01/23 06:01:17;;;;;;;40.88;23.83;;;;;;;;;;6313197;22;20014;-90
2023/01/23 06:03:43;;;;;;;32.88;19.35;;;;;;;;;;6312475;22;20011;-89
2023/01/23 06:06:12;;;;;;;23.33;15.52;;;;;;;;;;6313218;22;20005;-91
2023/01/23 06:08:38;;;;;;;25.60;16.30;;;;;;;;;;6313203;22;20011;-90
2023/01/23 06:11:05;;;;;;;24.50;16.42;;;;;;;;;;6313055;22;20310;-91
2023/01/23 06:16:34;;;;;;;32.22;18.85;;;;;;;;;;6312875;22;20009;-91
2023/01/23 06:19:00;;;;;;;23.63;15.43;;;;;;;;;;6285916;22;20004;-88
2023/01/23 06:21:26;;;;;;;25.90;17.50;;;;;;;;;;6286002;22;20007;-87
2023/01/23 06:23:52;;;;;;;26.65;17.55;;;;;;;;;;6285579;22;20062;-89
2023/01/23 06:26:18;;;;;;;31.13;18.88;;;;;;;;;;6313189;22;20066;-90
2023/01/23 06:29:00;;;;;;;31.88;20.85;;;;;;;;;;6285914;22;20007;-91
2023/01/23 06:31:26;;;;;;;39.55;22.42;;;;;;;;;;6313095;22;20025;-91
2023/01/23 06:33:52;;;;;;;50.75;26.75;;;;;;;;;;6313361;22;20003;-90
2023/01/23 06:36:18;;;;;;;56.17;29.30;;;;;;;;;;6285697;22;20058;-92
2023/01/23 06:38:44;;;;;;;56.25;28.40;;;;;;;;;;6313118;22;20004;-92
2023/01/23 06:41:10;;;;;;;36.90;20.92;;;;;;;;;;6312921;22;20078;-91
2023/01/23 06:46:40;;;;;;;53.50;25.30;;;;;;;;;;6312785;22;20014;-92
2023/01/23 06:49:06;;;;;;;58.13;27.45;;;;;;;;;;6285753;22;20007;-89
2023/01/23 06:51:33;;;;;;;40.50;22.15;;;;;;;;;;6312485;22;20004;-93
2023/01/23 06:53:59;;;;;;;38.88;21.92;;;;;;;;;;6286325;22;20262;-92
2023/01/23 06:56:25;;;;;;;43.88;23.13;;;;;;;;;;6286929;22;20068;-91
2023/01/23 06:58:52;;;;;;;44.88;25.67;;;;;;;;;;6314796;22;19995;-91
2023/01/23 07:01:18;;;;;;;37.88;20.17;;;;;;;;;;6315084;22;20070;-90
2023/01/23 07:03:44;;;;;;;27.23;16.05;;;;;;;;;;6314565;22;20019;-91
2023/01/23 07:06:12;;;;;;;34.35;19.17;;;;;;;;;;6314643;22;20377;-91
2023/01/23 07:08:39;;;;;;;43.00;23.73;;;;;;;;;;6287413;22;20331;-91
2023/01/23 07:11:05;;;;;;;61.58;30.02;;;;;;;;;;6287419;22;20015;-93
2023/01/23 07:13:31;;;;;;;51.13;25.27;;;;;;;;;;6287545;22;20003;-91
2023/01/23 07:15:57;;;;;;;30.73;17.25;;;;;;;;;;6287937;22;20003;-91
2023/01/23 07:18:26;;;;;;;37.13;20.38;;;;;;;;;;6287423;22;20034;-92
2023/01/23 07:20:53;;;;;;;48.78;26.52;;;;;;;;;;6314335;22;20011;-90
2023/01/23 07:23:19;;;;;;;33.53;20.27;;;;;;;;;;6314981;22;19996;-91
2023/01/23 07:25:45;;;;;;;44.05;26.02;;;;;;;;;;6314511;22;19999;-90
2023/01/23 07:28:12;;;;;;;59.13;34.47;;;;;;;;;;6314542;22;19999;-90
2023/01/23 07:30:38;;;;;;;52.85;29.27;;;;;;;;;;6314470;22;20017;-90
2023/01/23 07:33:04;;;;;;;51.20;28.13;;;;;;;;;;6314253;22;20003;-90
2023/01/23 07:35:31;;;;;;;40.83;24.52;;;;;;;;;;6287304;22;20035;-90
2023/01/23 07:37:57;;;;;;;55.03;29.13;;;;;;;;;;6314438;22;20006;-90
2023/01/23 07:40:23;;;;;;;38.40;22.77;;;;;;;;;;6287184;22;20045;-91
2023/01/23 07:42:49;;;;;;;50.72;29.98;;;;;;;;;;6313919;22;20293;-91
2023/01/23 07:45:15;;;;;;;43.17;26.27;;;;;;;;;;6314022;22;19999;-89
2023/01/23 07:47:41;;;;;;;52.03;30.83;;;;;;;;;;6314515;22;20082;-90
2023/01/23 07:50:10;;;;;;;42.10;26.58;;;;;;;;;;6287308;22;20007;-88
2023/01/23 07:52:37;;;;;;;37.40;27.83;;;;;;;;;;6286315;22;20015;-91
2023/01/23 07:55:03;;;;;;;62.30;44.80;;;;;;;;;;6287154;22;20003;-90
2023/01/23 07:57:29;;;;;;;61.08;35.22;;;;;;;;;;6286970;22;20045;-91
2023/01/23 07:59:55;;;;;;;66.85;36.60;;;;;;;;;;6287147;22;20006;-90
2023/01/23 08:02:21;;;;;;;64.93;34.67;;;;;;;;;;6286446;22;20035;-90
2023/01/23 08:04:47;;;;;;;45.45;26.30;;;;;;;;;;6314302;22;20007;-91
2023/01/23 08:07:13;;;;;;;48.72;27.75;;;;;;;;;;6286931;22;20038;-90
2023/01/23 08:09:39;;;;;;;30.95;19.77;;;;;;;;;;6313879;22;20049;-91
2023/01/23 08:12:05;;;;;;;26.60;16.90;;;;;;;;;;6314280;22;20042;-91
2023/01/23 08:14:32;;;;;;;36.47;22.05;;;;;;;;;;6286709;22;20029;-90
2023/01/23 08:16:58;;;;;;;81.32;33.03;;;;;;;;;;6286923;22;20297;-92
2023/01/23 08:19:26;;;;;;;72.82;36.17;;;;;;;;;;6286838;22;20003;-91
2023/01/23 08:21:52;;;;;;;32.75;19.00;;;;;;;;;;6286993;22;20390;-91
2023/01/23 08:24:18;;;;;;;33.28;19.13;;;;;;;;;;6313754;22;20074;-89
2023/01/23 08:26:44;;;;;;;81.72;35.22;;;;;;;;;;6313929;22;20010;-91
2023/01/23 08:29:10;;;;;;;40.33;22.70;;;;;;;;;;6286788;22;20388;-91
2023/01/23 08:31:37;;;;;;;30.80;17.50;;;;;;;;;;6286739;22;20007;-92
2023/01/23 08:34:03;;;;;;;37.28;21.42;;;;;;;;;;6286234;22;20086;-90
2023/01/23 08:36:29;;;;;;;43.13;23.83;;;;;;;;;;6286519;22;19999;-90
2023/01/23 08:38:55;;;;;;;31.10;17.50;;;;;;;;;;6286748;22;20026;-91
2023/01/23 08:41:22;;;;;;;28.33;16.30;;;;;;;;;;6313467;22;20007;-90
2023/01/23 08:43:49;;;;;;;48.20;19.20;;;;;;;;;;6314007;22;20003;-91
2023/01/23 08:46:15;;;;;;;23.35;12.80;;;;;;;;;;6286836;22;20072;-92
2023/01/23 08:48:41;;;;;;;23.92;14.85;;;;;;;;;;6313200;22;20081;-90
2023/01/23 08:51:08;;;;;;;33.78;15.02;;;;;;;;;;6286418;22;20015;-91
2023/01/23 08:53:35;;;;;;;42.97;19.27;;;;;;;;;;6286180;22;20083;-91
2023/01/23 08:56:02;;;;;;;45.40;19.92;;;;;;;;;;6286371;22;20014;-91
2023/01/23 08:58:28;;;;;;;45.83;21.48;;;;;;;;;;6313675;22;19996;-90
2023/01/23 09:00:54;;;;;;;26.85;15.45;;;;;;;;;;6313690;22;20003;-91
2023/01/23 09:03:20;;;;;;;23.50;14.23;;;;;;;;;;6313355;22;20073;-91
2023/01/23 09:05:46;;;;;;;26.92;14.55;;;;;;;;;;6286414;22;20003;-90
2023/01/23 09:08:13;;;;;;;24.83;13.82;;;;;;;;;;6313366;22;19996;-91
2023/01/23 09:10:39;;;;;;;18.02;11.00;;;;;;;;;;6286396;22;20022;-91
2023/01/23 09:13:05;;;;;;;16.95;10.63;;;;;;;;;;6313526;22;20082;-90
2023/01/23 09:15:31;;;;;;;15.77;10.05;;;;;;;;;;6286314;22;20003;-92
2023/01/23 09:17:57;;;;;;;15.73;10.13;;;;;;;;;;6286228;22;20082;-91
2023/01/23 09:20:25;;;;;;;16.63;11.10;;;;;;;;;;6313294;22;20003;-91
2023/01/23 09:22:52;;;;;;;13.95;8.90;;;;;;;;;;6313566;22;20014;-88
2023/01/23 09:25:18;;;;;;;13.07;8.13;;;;;;;;;;6286080;22;20003;-91
2023/01/23 09:27:44;;;;;;;10.73;7.45;;;;;;;;;;6313357;22;20068;-90
2023/01/23 09:30:10;;;;;;;16.15;9.32;;;;;;;;;;6313434;22;20011;-91
2023/01/23 09:32:36;;;;;;;12.82;7.70;;;;;;;;;;6286061;22;20007;-91
2023/01/23 09:35:03;;;;;;;17.55;8.02;;;;;;;;;;6285973;22;20418;-90
2023/01/23 09:37:58;;;;;;;12.15;8.00;;;;;;;;;;6313451;22;20008;-91
2023/01/23 09:40:21;;;;;;;12.93;7.53;;;;;;;;;;6313157;22;20010;-90
2023/01/23 09:42:48;;;;;;;11.80;7.47;;;;;;;;;;6313104;22;20030;-91
2023/01/23 09:45:20;;;;;;;14.25;7.80;;;;;;;;;;6313286;22;20003;-91
2023/01/23 09:47:53;;;;;;;14.73;8.18;;;;;;;;;;6286082;22;20011;-91
2023/01/23 09:50:22;;;;;;;8.73;4.75;;;;;;;;;;6312542;22;20011;-91
2023/01/23 09:52:55;;;;;;;9.70;5.75;;;;;;;;;;6286127;22;20011;-90
2023/01/23 09:55:24;;;;;;;8.48;5.20;;;;;;;;;;6312895;22;19995;-88
2023/01/23 09:57:55;;;;;;;8.48;5.32;;;;;;;;;;6313296;22;20003;-90
2023/01/23 10:00:26;;;;;;;23.35;13.73;;;;;;;;;;6285630;22;20031;-90
2023/01/23 10:02:53;;;;;;;7.32;4.40;;;;;;;;;;6285576;22;20019;-90
2023/01/23 10:05:21;;;;;;;11.43;6.60;;;;;;;;;;6312701;22;20231;-90
2023/01/23 10:08:05;;;;;;;14.70;7.57;;;;;;;;;;6285880;22;20017;-90
2023/01/23 10:10:50;;;;;;;7.97;5.65;;;;;;;;;;6285977;22;20031;-90
2023/01/23 10:13:37;;;;;;;9.27;5.80;;;;;;;;;;6284639;22;20017;-90
2023/01/23 10:16:21;;;;;;;7.35;4.18;;;;;;;;;;6285657;22;20351;-90
2023/01/23 10:18:53;;;;;;;7.00;4.35;;;;;;;;;;6280592;22;20262;-89
2023/01/23 10:21:37;;;;;;;7.23;4.20;;;;;;;;;;6279551;22;20066;-90
2023/01/23 10:24:09;;;;;;;8.30;5.03;;;;;;;;;;6312623;22;20225;-90
2023/01/23 10:26:40;;;;;;;12.60;6.57;;;;;;;;;;6313021;22;19999;-89
2023/01/23 10:29:15;;;;;;;12.48;6.20;;;;;;;;;;6285843;22;20109;-92
2023/01/23 10:31:48;;;;;;;12.15;6.63;;;;;;;;;;6286913;22;20362;-90
2023/01/23 10:34:21;;;;;;;13.55;7.32;;;;;;;;;;6287805;22;19999;-90
2023/01/23 10:36:54;;;;;;;9.40;5.20;;;;;;;;;;6287902;22;20008;-90
2023/01/23 10:39:19;;;;;;;;;;;;;;;;;;6315616;22;19995;-90
2023/01/23 10:41:46;;;;;;;11.60;6.93;;;;;;;;;;6315141;22;19918;-89
2023/01/23 10:44:16;;;;;;;11.60;7.18;;;;;;;;;;6314734;22;20003;-90
2023/01/23 10:46:46;;;;;;;20.30;11.18;;;;;;;;;;6315044;22;20004;-91
2023/01/23 10:49:26;;;;;;;11.35;5.32;;;;;;;;;;6314805;22;20007;-89
2023/01/23 10:51:52;;;;;;;15.05;8.15;;;;;;;;;;6315147;22;20030;-90
2023/01/23 10:54:23;;;;;;;6.90;4.53;;;;;;;;;;6287684;22;20000;-90
2023/01/23 10:56:59;;;;;;;11.18;6.55;;;;;;;;;;6314634;22;19999;-90
2023/01/23 10:59:32;;;;;;;11.15;7.35;;;;;;;;;;6287686;22;20366;-91
2023/01/23 11:01:58;;;;;;;;;;;;;;;;;;6288228;22;20309;-91
2023/01/23 11:04:26;;;;;;;16.58;9.63;;;;;;;;;;6287570;22;20020;-90
2023/01/23 11:07:15;;;;;;;11.23;6.90;;;;;;;;;;6314640;22;19999;-90
2023/01/23 11:09:48;;;;;;;10.60;6.45;;;;;;;;;;6165752;23;20005;-89
2023/01/23 11:12:19;;;;;;;12.10;7.25;;;;;;;;;;6190303;23;20001;-90
2023/01/23 11:14:45;;;;;;;9.68;5.88;;;;;;;;;;6190502;23;20350;-89
2023/01/23 11:17:14;;;;;;;13.18;6.60;;;;;;;;;;6189801;23;19998;-89
2023/01/23 11:19:41;;;;;;;7.57;3.90;;;;;;;;;;6188631;23;20010;-91
2023/01/23 11:22:28;;;;;;;9.73;5.03;;;;;;;;;;6188521;23;20020;-90
2023/01/23 11:24:54;;;;;;;6.25;4.15;;;;;;;;;;6164258;23;20011;-90
2023/01/23 11:27:26;;;;;;;8.38;5.35;;;;;;;;;;6189393;23;20017;-89
2023/01/23 11:30:00;;;;;;;9.20;6.20;;;;;;;;;;6163647;23;20009;-89
2023/01/23 11:32:28;;;;;;;5.95;4.22;;;;;;;;;;6163765;23;20013;-90
2023/01/23 11:35:03;;;;;;;11.55;6.57;;;;;;;;;;6164682;23;20008;-89
2023/01/23 11:37:34;;;;;;;11.13;6.43;;;;;;;;;;6165356;23;20073;-91
2023/01/23 11:40:17;;;;;;;9.73;6.03;;;;;;;;;;6163616;23;20028;-89
2023/01/23 11:42:44;;;;;;;7.43;5.00;;;;;;;;;;6188808;23;20096;-90
2023/01/23 11:45:17;;;;;;;12.38;7.28;;;;;;;;;;6190411;23;20084;-89
2023/01/23 11:47:46;;;;;;;12.43;7.47;;;;;;;;;;6280509;22;20082;-89
2023/01/23 11:50:24;;;;;;;9.25;5.50;;;;;;;;;;6313948;22;20012;-89
2023/01/23 11:53:02;;;;;;;10.00;6.30;;;;;;;;;;6313875;22;20007;-89
2023/01/23 11:55:32;;;;;;;12.55;7.45;;;;;;;;;;6314411;22;20262;-89
2023/01/23 11:58:01;;;;;;;11.52;7.47;;;;;;;;;;6313930;22;20354;-88
2023/01/23 12:00:27;;;;;;;11.45;7.30;;;;;;;;;;6286336;22;20046;-91
2023/01/23 12:03:11;;;;;;;16.52;8.70;;;;;;;;;;6312385;22;20019;-89
2023/01/23 12:05:51;;;;;;;9.10;4.97;;;;;;;;;;6313633;22;20000;-90
2023/01/23 12:08:26;;;;;;;9.45;5.25;;;;;;;;;;6312342;22;20007;-90
2023/01/23 12:11:12;;;;;;;11.05;7.05;;;;;;;;;;6285847;22;20003;-91
2023/01/23 12:13:48;;;;;;;9.88;4.70;;;;;;;;;;6286131;22;20004;-89
2023/01/23 12:16:29;;;;;;;11.07;5.95;;;;;;;;;;6312785;22;19999;-87
2023/01/23 12:19:17;;;;;;;13.48;7.88;;;;;;;;;;6307128;22;20004;-89
2023/01/23 12:21:59;;;;;;;11.68;6.80;;;;;;;;;;6312800;22;20011;-90
2023/01/23 12:24:43;;;;;;;10.48;7.22;;;;;;;;;;6286848;22;20031;-89
2023/01/23 12:27:12;;;;;;;11.45;7.00;;;;;;;;;;6286624;22;20011;-90
2023/01/23 12:29:49;;;;;;;9.82;6.40;;;;;;;;;;6313938;22;20010;-88
2023/01/23 12:32:27;;;;;;;9.35;5.97;;;;;;;;;;6313522;22;19995;-89
2023/01/23 12:34:53;;;;;;;9.85;5.80;;;;;;;;;;6313865;22;20057;-89
2023/01/23 12:37:37;;;;;;;10.35;6.50;;;;;;;;;;6314134;22;20063;-88
2023/01/23 12:40:16;;;;;;;15.80;8.10;;;;;;;;;;6314114;22;20062;-89
2023/01/23 12:42:45;;;;;;;15.68;7.10;;;;;;;;;;6286640;22;20007;-89
2023/01/23 12:45:16;;;;;;;22.73;10.45;;;;;;;;;;6313934;22;20052;-88
2023/01/23 12:47:48;;;;;;;25.08;10.07;;;;;;;;;;6286690;22;20304;-88
2023/01/23 12:50:17;;;;;;;27.27;10.67;;;;;;;;;;6314181;22;20007;-89
2023/01/23 12:52:47;;;;;;;17.83;8.68;;;;;;;;;;6286703;22;20011;-89
2023/01/23 12:55:20;;;;;;;15.25;8.27;;;;;;;;;;6286575;22;20073;-89
2023/01/23 12:57:53;;;;;;;14.80;7.97;;;;;;;;;;6286688;22;20273;-89
2023/01/23 13:00:22;;;;;;;15.43;8.25;;;;;;;;;;6286595;22;19999;-89
2023/01/23 13:02:48;;;;;;;14.82;7.80;;;;;;;;;;6313010;22;20015;-89
2023/01/23 13:05:28;;;;;;;27.42;13.55;;;;;;;;;;6286622;22;20007;-89
2023/01/23 13:08:10;;;;;;;30.60;17.13;;;;;;;;;;6313597;22;20037;-87
2023/01/23 13:13:39;;;;;;;60.50;27.52;;;;;;;;;;6312768;22;20089;-86
2023/01/23 13:16:05;;;;;;;36.83;19.13;;;;;;;;;;6286291;22;20006;-79
2023/01/23 13:21:59;;;;;;;30.95;16.73;;;;;;;;;;6311595;22;20000;-86
2023/01/23 13:27:26;;;;;;;29.95;16.67;;;;;;;;;;6210893;23;20380;-86
2023/01/23 13:29:52;;;;;;;29.05;17.30;;;;;;;;;;6193719;23;20008;-86
2023/01/23 13:32:22;;;;;;;35.88;19.25;;;;;;;;;;6219247;23;20289;-87
2023/01/23 13:34:48;;;;;;;50.85;29.58;;;;;;;;;;6219288;23;20391;-86
2023/01/23 13:37:41;;;;;;;59.15;34.90;;;;;;;;;;6193907;23;20000;-86
2023/01/23 13:40:15;;;;;;;266.77;151.02;;;;;;;;;;6213276;23;20399;-86
2023/01/23 13:42:42;;;;;;;382.10;223.00;;;;;;;;;;6193458;23;20009;-86
2023/01/23 13:45:22;;;;;;;194.13;108.15;;;;;;;;;;6218985;23;20008;-86
2023/01/23 13:50:41;;;;;;;88.90;47.78;;;;;;;;;;6129852;23;20017;-87
2023/01/23 13:58:48;;;;;;;275.73;129.15;;;;;;;;;;6129766;23;20021;-85
2023/01/23 14:06:49;;;;;;;96.05;39.88;;;;;;;;;;6188567;23;20016;-84
2023/01/23 14:09:22;;;;;;;132.98;64.68;;;;;;;;;;6188510;23;20028;-83
2023/01/23 14:11:55;;;;;;;77.63;36.88;;;;;;;;;;6188541;23;20009;-83
2023/01/23 14:17:06;;;;;;;38.33;17.17;;;;;;;;;;6188567;23;20035;-84
2023/01/23 14:19:32;;;;;;;27.45;16.15;;;;;;;;;;6188684;23;20076;-84
2023/01/23 14:22:00;;;;;;;36.70;21.23;;;;;;;;;;6188943;23;20133;-84
2023/01/23 14:24:28;;;;;;;33.97;18.67;;;;;;;;;;6188612;23;20005;-83
2023/01/23 14:27:01;;;;;;;34.45;20.77;;;;;;;;;;6209218;22;20003;-84
2023/01/23 14:29:27;;;;;;;35.45;20.77;;;;;;;;;;6312761;22;20007;-82
2023/01/23 14:31:54;;;;;;;29.50;17.88;;;;;;;;;;6312531;22;20045;-83
2023/01/23 14:34:44;;;;;;;44.15;24.10;;;;;;;;;;6315344;22;20003;-94
2023/01/23 14:37:19;;;;;;;31.63;15.77;;;;;;;;;;6198262;23;20007;-93
2023/01/23 14:39:46;;;;;;;43.75;22.42;;;;;;;;;;6166699;23;20051;-95
2023/01/23 14:42:20;;;;;;;28.90;16.95;;;;;;;;;;6190874;23;20029;-93
2023/01/23 14:44:46;;;;;;;38.50;19.48;;;;;;;;;;6190726;23;20009;-94
2023/01/23 14:47:16;;;;;;;64.15;19.40;;;;;;;;;;6190501;23;20403;-93
2023/01/23 14:49:43;;;;;;;68.57;16.10;;;;;;;;;;6166572;23;20018;-93
2023/01/23 14:52:21;;;;;;;133.70;49.47;;;;;;;;;;6168455;23;20005;-95
2023/01/23 14:54:48;;;;;;;247.88;115.07;;;;;;;;;;6194544;23;20005;-94
2023/01/23 14:57:14;;;;;;;153.13;71.53;;;;;;;;;;6197112;23;20392;-95
2023/01/23 14:59:42;;;;;;;78.60;26.17;;;;;;;;;;6198211;23;20008;-93
2023/01/23 15:02:27;;;;;;;154.90;64.93;;;;;;;;;;6198893;23;20005;-94
2023/01/23 15:05:11;;;;;;;84.90;41.10;;;;;;;;;;6169905;23;20016;-94
2023/01/23 15:07:46;;;;;;;59.22;26.42;;;;;;;;;;6195287;23;20013;-94
2023/01/23 15:10:17;;;;;;;74.97;34.80;;;;;;;;;;6193952;23;20009;-92
2023/01/23 15:12:55;;;;;;;70.50;31.98;;;;;;;;;;6189622;23;20021;-92
2023/01/23 15:15:23;;;;;;;56.20;23.40;;;;;;;;;;6313220;22;20013;-90
2023/01/23 15:17:49;;;;;;;180.50;78.43;;;;;;;;;;6313403;22;20074;-91
2023/01/23 15:20:26;;;;;;;154.38;67.82;;;;;;;;;;6314243;22;20072;-89
2023/01/23 15:22:52;;;;;;;75.85;36.50;;;;;;;;;;6287155;22;20424;-92
2023/01/23 15:25:33;;;;;;;125.10;58.03;;;;;;;;;;6314418;22;20038;-92
2023/01/23 15:27:59;;;;;;;98.70;46.40;;;;;;;;;;6286619;22;20015;-90
2023/01/23 15:30:28;;;;;;;68.47;31.85;;;;;;;;;;6313408;22;20011;-91
2023/01/23 15:32:55;;;;;;;67.30;32.08;;;;;;;;;;6287537;22;20011;-94
2023/01/23 15:35:21;;;;;;;117.72;53.58;;;;;;;;;;6313579;22;20003;-92
2023/01/23 15:37:47;;;;;;;120.90;56.45;;;;;;;;;;6312895;22;20003;-92